Ilasco, Missouri
Current Conditions -  °F | °C
As of 7:55 AM on Saturday 01 Nov 2014 (Local Time) from KHAE Reporting Station
Clear Clear  
Wind Chill: -3°   Ceiling: Unl
Heat Index: -3°   Visibility: 10mi
Dew Point: -6°   Wind: 3mph
Humidity: 80%   Direction: 340°NNW
Pressure: 30.47"   Gusts: NA
Location:  39.7145°N, 91.4209°W
Report Text: KHAE 011255Z AUTO 34003KT 10SM CLR M03/M06 A3047 RMK AO2
Loading
Personal Weather Stations






























Interactive Weather Map
Tropical Storm Tracking
New forecast layout! Learn more

10-Day Weather Forecast

Advertisements
Track Severe Weather on mobile